sim
Sign-in with your pilot id or email,
or register
Callsign
Passwort

Schedule Details

Flight Number: DLH2179
Departure: Paderborn Lippstadt Airport (EDLP) at 12:20
Arrival: Munich Airport (EDDM) at 13:20
Route: Lufthansa Passenger Schedule. Enter filed route here before submitting Pirep.

Weather Information
Getting current METAR information for EDLP 210550Z 15004KT CAVOK 09/04 Q1017
Getting current METAR information for EDDM 210550Z VRB01KT 9999 1500SE BCFG NSC 07/07 Q1017 NOSIG

Schedule Frequency

Route Map